Time;durP1;ratioP1;P1;durP2;ratioP2;P2;SDS_P1;SDS_P2;PMS_P1;PMS_P2;Temp;Humidity;BMP_temperature;BMP_pressure;BME280_temperature;BME280_humidity;BME280_pressure;Samples;Min_cycle;Max_cycle;Signal;HPM_P1;HPM_P2
2022/11/21 00:01:21;;;;;;;31.35;18.42;;;1.40;99.90;;;;;;5061453;28;20044;-34
2022/11/21 00:03:47;;;;;;;30.10;20.00;;;1.40;99.90;;;;;;5068010;28;20036;-32
2022/11/21 00:06:13;;;;;;;31.98;21.25;;;1.40;99.90;;;;;;5067006;28;20041;-32
2022/11/21 00:08:39;;;;;;;25.33;18.08;;;1.40;99.90;;;;;;5078898;28;20397;-31
2022/11/21 00:11:05;;;;;;;27.75;19.17;;;1.40;99.90;;;;;;5072180;28;20041;-34
2022/11/21 00:13:31;;;;;;;31.45;19.80;;;1.40;99.90;;;;;;5073556;28;20041;-32
2022/11/21 00:16:03;;;;;;;26.75;19.10;;;1.40;99.90;;;;;;5073283;28;20044;-32
2022/11/21 00:18:33;;;;;;;27.77;19.17;;;1.40;99.90;;;;;;5072011;28;20046;-33
2022/11/21 00:21:07;;;;;;;28.55;19.20;;;1.40;99.90;;;;;;5072678;28;20039;-32
2022/11/21 00:23:33;;;;;;;30.92;20.20;;;1.40;99.90;;;;;;5077869;28;20111;-30
2022/11/21 00:26:03;;;;;;;30.15;19.80;;;1.40;99.90;;;;;;5075480;28;20121;-32
2022/11/21 00:28:29;;;;;;;29.20;20.02;;;1.40;99.90;;;;;;5067429;28;20052;-31
2022/11/21 00:30:55;;;;;;;28.35;19.77;;;1.40;99.90;;;;;;5071975;28;20502;-32
2022/11/21 00:33:21;;;;;;;30.42;20.42;;;1.50;99.90;;;;;;5063066;28;20051;-33
2022/11/21 00:35:46;;;;;;;30.10;19.65;;;1.50;99.90;;;;;;5069588;28;20515;-32
2022/11/21 00:38:12;;;;;;;32.85;20.73;;;1.40;99.90;;;;;;5068621;28;20037;-33
2022/11/21 00:40:44;;;;;;;29.25;19.98;;;1.40;99.90;;;;;;5080193;28;20033;-32
2022/11/21 00:43:10;;;;;;;28.83;20.15;;;1.40;99.90;;;;;;5071807;28;20033;-31
2022/11/21 00:45:36;;;;;;;27.95;19.83;;;1.40;99.90;;;;;;5072046;28;20074;-32
2022/11/21 00:48:02;;;;;;;27.70;20.55;;;1.40;99.90;;;;;;5062830;28;20041;-32
2022/11/21 00:50:28;;;;;;;31.92;20.75;;;1.40;99.90;;;;;;5075446;28;20505;-32
2022/11/21 00:52:57;;;;;;;28.55;20.45;;;1.40;99.90;;;;;;5072532;28;20448;-32
2022/11/21 00:55:24;;;;;;;30.45;19.85;;;1.40;99.90;;;;;;5073721;28;20120;-31
2022/11/21 00:57:50;;;;;;;29.33;20.42;;;1.30;99.90;;;;;;5068703;28;20040;-33
2022/11/21 01:00:17;;;;;;;29.95;20.85;;;1.30;99.90;;;;;;5068534;28;20060;-33
2022/11/21 01:02:43;;;;;;;30.33;19.85;;;1.20;99.90;;;;;;5061503;28;20033;-34
2022/11/21 01:05:09;;;;;;;31.55;20.63;;;1.20;99.90;;;;;;5070488;28;20097;-33
2022/11/21 01:07:35;;;;;;;28.60;19.10;;;1.10;99.90;;;;;;5073309;28;20086;-31
2022/11/21 01:10:01;;;;;;;26.27;18.55;;;1.10;99.90;;;;;;5065194;28;20051;-31
2022/11/21 01:12:27;;;;;;;26.42;20.15;;;1.10;99.90;;;;;;5073880;28;20033;-32
2022/11/21 01:14:52;;;;;;;29.25;21.27;;;1.10;99.90;;;;;;5071122;28;20032;-34
2022/11/21 01:17:18;;;;;;;33.15;21.90;;;1.10;99.90;;;;;;5070315;28;20298;-33
2022/11/21 01:19:44;;;;;;;28.92;19.60;;;1.10;99.90;;;;;;5067309;28;20509;-31
2022/11/21 01:22:09;;;;;;;32.10;21.20;;;1.10;99.90;;;;;;5072165;28;20058;-31
2022/11/21 01:24:35;;;;;;;30.98;20.88;;;1.10;99.90;;;;;;5067587;28;20068;-31
2022/11/21 01:27:01;;;;;;;32.50;21.48;;;1.10;99.90;;;;;;5071882;28;20119;-32
2022/11/21 01:29:27;;;;;;;27.38;19.55;;;1.10;99.90;;;;;;5073363;28;20047;-36
2022/11/21 01:31:52;;;;;;;29.83;19.52;;;1.10;99.90;;;;;;5082883;28;20111;-32
2022/11/21 01:34:18;;;;;;;33.78;21.92;;;1.20;99.90;;;;;;5079189;28;20035;-36
2022/11/21 01:36:44;;;;;;;29.88;20.27;;;1.20;99.90;;;;;;5074451;28;20028;-35
2022/11/21 01:39:11;;;;;;;29.95;19.75;;;1.20;99.90;;;;;;5066695;28;20037;-34
2022/11/21 01:41:40;;;;;;;33.13;20.83;;;1.20;99.90;;;;;;5068550;28;20085;-33
2022/11/21 01:44:24;;;;;;;33.95;22.27;;;1.20;99.90;;;;;;5077349;28;20051;-32
2022/11/21 01:46:51;;;;;;;32.95;21.77;;;1.30;99.90;;;;;;5063150;28;20033;-33
2022/11/21 01:49:29;;;;;;;35.30;22.90;;;1.20;99.90;;;;;;5064811;28;20110;-32
2022/11/21 01:52:00;;;;;;;28.73;20.10;;;1.20;99.90;;;;;;5077311;28;20036;-34
2022/11/21 01:54:40;;;;;;;31.65;20.65;;;1.20;99.90;;;;;;5073169;28;20051;-31
2022/11/21 01:57:20;;;;;;;33.58;21.80;;;1.20;99.90;;;;;;5067330;28;20443;-31
2022/11/21 02:00:05;;;;;;;28.48;20.30;;;1.20;99.90;;;;;;5073498;28;20055;-32
2022/11/21 02:02:38;;;;;;;32.10;21.92;;;1.30;99.90;;;;;;5078537;28;20066;-34
2022/11/21 02:05:07;;;;;;;33.85;22.80;;;1.30;99.90;;;;;;5074585;28;20032;-32
2022/11/21 02:07:38;;;;;;;30.40;21.10;;;1.30;99.90;;;;;;5066818;28;20494;-33
2022/11/21 02:10:05;;;;;;;29.23;21.33;;;1.30;99.90;;;;;;5066742;28;20044;-31
2022/11/21 02:12:42;;;;;;;32.42;21.60;;;1.30;99.90;;;;;;5074867;28;20040;-33
2022/11/21 02:15:08;;;;;;;31.13;21.90;;;1.30;99.90;;;;;;5056077;28;20146;-34
2022/11/21 02:17:34;;;;;;;32.45;20.85;;;1.30;99.90;;;;;;5076944;28;20044;-32
2022/11/21 02:20:03;;;;;;;28.42;19.92;;;1.30;99.90;;;;;;5074827;28;20050;-35
2022/11/21 02:22:31;;;;;;;28.60;19.77;;;1.30;99.90;;;;;;5069946;28;20033;-31
2022/11/21 02:25:32;;;;;;;29.85;20.58;;;1.30;99.90;;;;;;5081542;28;20032;-33
2022/11/21 02:28:01;;;;;;;30.83;20.65;;;1.30;99.90;;;;;;5069636;28;20108;-32
2022/11/21 02:30:32;;;;;;;28.63;19.63;;;1.30;99.90;;;;;;5066805;28;20040;-32
2022/11/21 02:32:57;;;;;;;33.45;22.17;;;1.30;99.90;;;;;;5070265;28;20123;-31
2022/11/21 02:35:24;;;;;;;32.92;21.48;;;1.30;99.90;;;;;;5063727;28;20119;-36
2022/11/21 02:38:05;;;;;;;32.33;22.17;;;1.30;99.90;;;;;;5073012;28;20077;-32
2022/11/21 02:40:35;;;;;;;28.70;21.02;;;1.30;99.90;;;;;;5094386;28;20516;-34
2022/11/21 02:43:13;;;;;;;31.52;20.73;;;1.30;99.90;;;;;;5063535;28;20039;-33
2022/11/21 02:45:42;;;;;;;36.58;20.92;;;1.30;99.90;;;;;;5108622;22;20030;-83
2022/11/21 02:48:08;;;;;;;31.52;21.75;;;1.30;99.90;;;;;;5019002;28;20049;-83
2022/11/21 02:50:36;;;;;;;31.20;21.67;;;1.40;99.90;;;;;;4981214;28;20053;-82
2022/11/21 02:53:04;;;;;;;31.88;22.00;;;1.30;99.90;;;;;;4986547;28;20483;-82
2022/11/21 02:55:29;;;;;;;30.38;21.00;;;1.30;99.90;;;;;;4994880;28;20048;-82
2022/11/21 02:57:55;;;;;;;28.75;20.50;;;1.20;99.90;;;;;;4996553;28;20043;-82
2022/11/21 03:00:21;;;;;;;31.27;20.02;;;1.10;99.90;;;;;;4999974;28;20031;-83
2022/11/21 03:02:47;;;;;;;29.60;19.65;;;1.10;99.90;;;;;;4998777;28;20387;-83
2022/11/21 03:05:15;;;;;;;28.70;20.15;;;1.10;99.90;;;;;;4977502;28;20042;-83
2022/11/21 03:07:41;;;;;;;30.48;20.05;;;1.00;99.90;;;;;;4998338;28;20043;-83
2022/11/21 03:10:07;;;;;;;30.23;21.02;;;1.00;99.90;;;;;;4995708;28;20031;-83
2022/11/21 03:12:36;;;;;;;27.98;18.73;;;0.90;99.90;;;;;;5000085;28;20046;-83
2022/11/21 03:15:02;;;;;;;28.77;19.30;;;0.80;99.90;;;;;;4977280;28;20038;-83
2022/11/21 03:17:28;;;;;;;31.27;21.75;;;0.80;99.90;;;;;;4989648;28;20047;-83
2022/11/21 03:19:53;;;;;;;32.83;20.48;;;0.70;99.90;;;;;;4981369;28;20035;-83
2022/11/21 03:22:19;;;;;;;29.95;20.77;;;0.70;99.90;;;;;;5000345;28;20084;-83
2022/11/21 03:24:44;;;;;;;30.65;20.35;;;0.60;99.90;;;;;;4999921;28;20033;-83
2022/11/21 03:27:10;;;;;;;31.77;20.63;;;0.60;99.90;;;;;;4995918;28;20062;-83
2022/11/21 03:29:36;;;;;;;30.75;20.45;;;0.60;99.90;;;;;;4999839;28;20033;-83
2022/11/21 03:32:01;;;;;;;32.10;20.40;;;0.50;99.90;;;;;;4997948;28;20114;-83
2022/11/21 03:34:27;;;;;;;31.27;19.75;;;0.40;99.90;;;;;;4994951;28;20054;-83
2022/11/21 03:36:53;;;;;;;31.48;20.08;;;0.40;99.90;;;;;;4983745;28;20041;-82
2022/11/21 03:39:18;;;;;;;29.05;20.73;;;0.40;99.90;;;;;;4990789;28;20538;-83
2022/11/21 03:41:44;;;;;;;30.92;20.45;;;0.40;99.90;;;;;;4994573;28;20060;-83
2022/11/21 03:44:11;;;;;;;28.38;19.98;;;0.40;99.90;;;;;;4983489;28;20082;-83
2022/11/21 03:46:42;;;;;;;32.00;20.27;;;0.30;99.90;;;;;;4975924;28;20085;-83
2022/11/21 03:49:08;;;;;;;30.65;19.98;;;0.30;99.90;;;;;;4996893;28;20242;-82
2022/11/21 03:51:35;;;;;;;31.63;19.90;;;0.30;99.90;;;;;;5000958;28;20260;-83
2022/11/21 03:54:01;;;;;;;31.40;20.83;;;0.20;99.90;;;;;;4978487;28;20129;-83
2022/11/21 03:56:27;;;;;;;31.13;18.52;;;0.20;99.90;;;;;;4981429;28;20092;-83
2022/11/21 03:58:53;;;;;;;27.50;18.73;;;0.10;99.90;;;;;;4976342;28;20043;-83
2022/11/21 04:01:19;;;;;;;33.20;21.77;;;0.00;99.90;;;;;;4978037;28;20084;-83
2022/11/21 04:03:46;;;;;;;32.25;21.23;;;-0.10;99.90;;;;;;4982168;28;20477;-83
2022/11/21 04:06:14;;;;;;;34.83;22.75;;;-0.10;99.90;;;;;;4995293;28;20038;-83
2022/11/21 04:08:40;;;;;;;29.15;19.65;;;-0.20;99.90;;;;;;4966952;28;20069;-83
2022/11/21 04:11:06;;;;;;;36.55;22.38;;;-0.20;99.90;;;;;;4997975;28;20045;-83
2022/11/21 04:13:32;;;;;;;37.67;24.30;;;-0.20;99.90;;;;;;4996361;28;20130;-83
2022/11/21 04:15:57;;;;;;;49.47;28.40;;;-0.30;99.90;;;;;;4986494;28;20125;-83
2022/11/21 04:18:23;;;;;;;34.05;21.95;;;-0.40;99.90;;;;;;4992585;28;20064;-83
2022/11/21 04:20:54;;;;;;;33.90;21.33;;;-0.40;99.90;;;;;;4987683;28;20026;-83
2022/11/21 04:23:19;;;;;;;34.88;21.70;;;-0.50;99.90;;;;;;4990839;28;20037;-83
2022/11/21 04:25:45;;;;;;;31.83;20.98;;;-0.50;99.90;;;;;;4993624;28;20038;-82
2022/11/21 04:28:11;;;;;;;34.10;20.42;;;-0.50;99.90;;;;;;4990948;28;20042;-83
2022/11/21 04:30:36;;;;;;;30.25;20.45;;;-0.60;99.90;;;;;;4994650;28;20041;-83
2022/11/21 04:33:02;;;;;;;30.83;20.63;;;-0.60;99.90;;;;;;4993980;28;20224;-82
2022/11/21 04:35:28;;;;;;;30.63;20.35;;;-0.60;99.90;;;;;;5001048;28;20019;-82
2022/11/21 04:37:53;;;;;;;30.88;20.63;;;-0.70;99.90;;;;;;4999901;28;20031;-82
2022/11/21 04:40:19;;;;;;;33.00;21.40;;;-0.70;99.90;;;;;;5019336;28;20114;-82
2022/11/21 04:42:46;;;;;;;33.20;21.70;;;-0.70;99.90;;;;;;5017950;28;20065;-83
2022/11/21 04:45:13;;;;;;;39.95;23.95;;;-0.80;99.90;;;;;;4977053;28;20034;-83
2022/11/21 04:47:40;;;;;;;34.60;21.27;;;-0.80;99.90;;;;;;4979290;28;20073;-83
2022/11/21 04:50:07;;;;;;;31.75;20.33;;;-0.90;99.90;;;;;;4990238;28;20445;-83
2022/11/21 04:52:34;;;;;;;35.65;20.85;;;-0.90;99.90;;;;;;4994325;28;20054;-83
2022/11/21 04:55:00;;;;;;;31.98;21.33;;;-0.90;99.90;;;;;;5000908;28;20046;-83
2022/11/21 04:57:29;;;;;;;31.40;21.30;;;-0.90;99.90;;;;;;4991091;28;20030;-83
2022/11/21 04:59:55;;;;;;;29.33;19.88;;;-1.00;99.90;;;;;;4972741;28;20041;-83
2022/11/21 05:02:20;;;;;;;31.23;20.92;;;-1.00;99.90;;;;;;5000539;28;20038;-83
2022/11/21 05:04:46;;;;;;;30.63;20.83;;;-1.00;99.90;;;;;;4980077;28;20038;-83
2022/11/21 05:07:12;;;;;;;34.13;21.25;;;-1.10;99.90;;;;;;5002971;28;20037;-83
2022/11/21 05:09:37;;;;;;;37.30;23.85;;;-1.10;99.90;;;;;;4993382;28;20491;-83
2022/11/21 05:14:47;;;;;;;34.42;20.90;;;-1.10;99.90;;;;;;4992050;28;20399;-83
2022/11/21 05:17:13;;;;;;;36.25;23.08;;;-1.20;99.90;;;;;;4998014;28;20030;-83
2022/11/21 05:19:39;;;;;;;34.47;21.40;;;-1.20;99.90;;;;;;5000368;28;20230;-83
2022/11/21 05:22:04;;;;;;;30.88;21.60;;;-1.20;99.90;;;;;;4996740;28;20462;-83
2022/11/21 05:24:30;;;;;;;34.55;22.45;;;-1.20;99.90;;;;;;4995200;28;20042;-83
2022/11/21 05:26:55;;;;;;;31.58;20.30;;;-1.30;99.90;;;;;;5017078;28;20094;-82
2022/11/21 05:29:21;;;;;;;33.15;20.27;;;-1.30;99.90;;;;;;5006627;28;20073;-82
2022/11/21 05:31:46;;;;;;;27.95;19.08;;;-1.30;99.90;;;;;;5001205;28;20037;-83
2022/11/21 05:34:12;;;;;;;33.33;20.98;;;-1.40;99.90;;;;;;4992946;28;20041;-83
2022/11/21 05:36:37;;;;;;;32.33;20.52;;;-1.30;99.90;;;;;;4983796;28;20041;-83
2022/11/21 05:39:03;;;;;;;34.10;22.02;;;-1.30;99.90;;;;;;4982853;28;20042;-83
2022/11/21 05:41:32;;;;;;;31.10;20.80;;;-1.40;99.90;;;;;;4975876;28;20043;-85
2022/11/21 05:43:57;;;;;;;34.97;21.25;;;-1.40;99.90;;;;;;4985941;28;20034;-84
2022/11/21 05:46:25;;;;;;;32.10;20.88;;;-1.40;99.90;;;;;;4974097;28;20113;-83
2022/11/21 05:48:52;;;;;;;41.47;27.98;;;-1.40;99.90;;;;;;4986838;28;20034;-83
2022/11/21 05:51:18;;;;;;;55.40;34.28;;;-1.40;99.90;;;;;;4989512;28;20133;-83
2022/11/21 05:53:45;;;;;;;39.90;25.67;;;-1.40;99.90;;;;;;4989020;28;20066;-83
2022/11/21 05:56:13;;;;;;;37.78;24.92;;;-1.40;99.90;;;;;;4971114;28;20125;-84
2022/11/21 05:58:39;;;;;;;39.95;25.75;;;-1.30;99.90;;;;;;4977124;28;20096;-83
2022/11/21 06:01:05;;;;;;;37.22;24.65;;;-1.30;99.90;;;;;;4987849;28;20046;-83
2022/11/21 06:03:36;;;;;;;37.15;24.27;;;-1.40;99.90;;;;;;4987994;28;20122;-83
2022/11/21 06:06:13;;;;;;;33.92;22.20;;;-1.40;99.90;;;;;;4983842;28;20041;-84
2022/11/21 06:08:44;;;;;;;43.15;26.17;;;-1.40;99.90;;;;;;4986929;28;20134;-83
2022/11/21 06:11:14;;;;;;;42.97;25.17;;;-1.50;99.90;;;;;;4964518;28;20368;-85
2022/11/21 06:13:40;;;;;;;39.50;24.95;;;-1.50;99.90;;;;;;4971134;28;20062;-83
2022/11/21 06:16:07;;;;;;;39.08;23.33;;;-1.50;99.90;;;;;;4985664;28;20049;-84
2022/11/21 06:18:38;;;;;;;33.78;21.88;;;-1.50;99.90;;;;;;4988248;28;20045;-84
2022/11/21 06:21:08;;;;;;;34.92;22.17;;;-1.50;99.90;;;;;;4992828;28;20043;-84
2022/11/21 06:23:34;;;;;;;30.48;20.42;;;-1.60;99.90;;;;;;4990491;28;20043;-84
2022/11/21 06:26:06;;;;;;;32.95;21.67;;;-1.60;99.90;;;;;;4975552;28;20034;-84
2022/11/21 06:28:34;;;;;;;36.38;23.17;;;-1.60;99.90;;;;;;4970571;28;20430;-83
2022/11/21 06:31:03;;;;;;;35.20;21.95;;;-1.60;99.90;;;;;;4982592;28;20038;-84
2022/11/21 06:33:29;;;;;;;45.78;24.63;;;-1.70;99.90;;;;;;4983175;28;20061;-83
2022/11/21 06:35:54;;;;;;;34.45;20.98;;;-1.60;99.90;;;;;;4985376;28;20407;-84
2022/11/21 06:38:21;;;;;;;35.95;21.70;;;-1.60;99.90;;;;;;4978986;28;20439;-84
2022/11/21 06:40:47;;;;;;;35.40;21.58;;;-1.60;99.90;;;;;;4982031;28;20117;-84
2022/11/21 06:43:12;;;;;;;40.53;25.70;;;-1.70;99.90;;;;;;4981073;28;20042;-84
2022/11/21 06:45:38;;;;;;;43.10;26.75;;;-1.60;99.90;;;;;;4989404;28;20058;-84
2022/11/21 06:48:04;;;;;;;47.28;30.50;;;-1.60;99.90;;;;;;5000300;28;20030;-84
2022/11/21 06:50:30;;;;;;;43.85;27.23;;;-1.60;99.90;;;;;;4978150;28;20034;-84
2022/11/21 06:53:01;;;;;;;40.45;26.27;;;-1.70;99.90;;;;;;5004261;28;20049;-85
2022/11/21 06:55:28;;;;;;;40.30;26.10;;;-1.70;99.90;;;;;;4984872;28;20070;-85
2022/11/21 06:57:57;;;;;;;45.40;28.30;;;-1.70;99.90;;;;;;4985173;28;20039;-86
2022/11/21 07:00:29;;;;;;;42.58;25.77;;;-1.70;99.90;;;;;;5008067;28;20557;-85
2022/11/21 07:03:02;;;;;;;41.58;24.70;;;-1.60;99.90;;;;;;5007073;28;20038;-84
2022/11/21 07:05:31;;;;;;;40.00;25.47;;;-1.60;99.90;;;;;;5004173;28;20030;-86
2022/11/21 07:08:02;;;;;;;46.75;27.00;;;-1.40;99.90;;;;;;5008526;28;20038;-86
2022/11/21 07:10:29;;;;;;;50.80;30.83;;;-1.50;99.90;;;;;;4991309;28;20038;-85
2022/11/21 07:13:22;;;;;;;50.83;31.30;;;-1.50;99.90;;;;;;5000965;28;20038;-85
2022/11/21 07:15:59;;;;;;;51.05;30.05;;;-1.40;99.90;;;;;;4985002;28;20616;-87
2022/11/21 07:18:31;;;;;;;46.35;28.08;;;-1.50;99.90;;;;;;4990107;28;20041;-87
2022/11/21 07:21:02;;;;;;;52.47;30.67;;;-1.40;99.90;;;;;;4980417;28;20039;-88
2022/11/21 07:23:28;;;;;;;47.05;28.52;;;-1.30;99.90;;;;;;4994085;28;20463;-86
2022/11/21 07:25:54;;;;;;;60.50;36.13;;;-1.30;99.90;;;;;;4996640;28;20034;-86
2022/11/21 07:28:20;;;;;;;64.68;39.40;;;-1.30;99.90;;;;;;4989988;28;20049;-87
2022/11/21 07:30:45;;;;;;;51.83;29.67;;;-1.20;99.90;;;;;;5010302;28;20045;-85
2022/11/21 07:33:11;;;;;;;51.90;32.45;;;-1.20;99.90;;;;;;4993782;28;20443;-85
2022/11/21 07:35:38;;;;;;;52.95;32.65;;;-1.20;99.90;;;;;;5005321;28;20084;-85
2022/11/21 07:38:06;;;;;;;49.80;32.60;;;-1.10;99.90;;;;;;5000615;28;20316;-85
2022/11/21 07:40:33;;;;;;;56.20;34.70;;;-1.10;99.90;;;;;;5001210;28;20058;-85
2022/11/21 07:43:04;;;;;;;49.35;32.97;;;-1.10;99.90;;;;;;4987476;28;20042;-85
2022/11/21 07:45:31;;;;;;;61.10;34.65;;;-1.10;99.90;;;;;;5004774;28;20051;-85
2022/11/21 07:47:58;;;;;;;52.90;31.45;;;-1.00;99.90;;;;;;4988111;28;20037;-85
2022/11/21 07:50:24;;;;;;;53.00;31.88;;;-0.90;99.90;;;;;;5002848;28;20526;-85
2022/11/21 07:52:50;;;;;;;51.38;30.45;;;-1.00;99.90;;;;;;4997062;28;20042;-86
2022/11/21 07:55:16;;;;;;;48.58;28.23;;;-1.00;99.90;;;;;;5000875;28;20045;-85
2022/11/21 07:57:41;;;;;;;42.50;28.77;;;-1.00;99.90;;;;;;4996340;28;20049;-86
2022/11/21 08:00:08;;;;;;;46.53;27.10;;;-1.00;99.90;;;;;;4987310;28;20494;-86
2022/11/21 08:02:34;;;;;;;44.42;27.25;;;-1.00;99.90;;;;;;4985520;28;20883;-86
2022/11/21 08:04:59;;;;;;;44.20;27.10;;;-1.00;99.90;;;;;;5012416;28;20532;-85
2022/11/21 08:07:28;;;;;;;43.53;25.67;;;-1.00;99.90;;;;;;4991976;28;20399;-86
2022/11/21 08:09:53;;;;;;;44.78;27.00;;;-0.90;99.90;;;;;;4990187;28;20049;-85
2022/11/21 08:12:19;;;;;;;48.30;28.58;;;-0.90;99.90;;;;;;5007442;28;20494;-86
2022/11/21 08:14:45;;;;;;;49.47;28.00;;;-0.90;99.90;;;;;;5007898;28;20069;-86
2022/11/21 08:17:19;;;;;;;45.42;28.10;;;-0.70;99.90;;;;;;4984859;28;20053;-86
2022/11/21 08:19:45;;;;;;;61.65;36.13;;;-0.60;99.90;;;;;;5001799;28;20042;-85
2022/11/21 08:22:11;;;;;;;46.63;28.65;;;-0.50;99.90;;;;;;4993069;28;20101;-85
2022/11/21 08:24:36;;;;;;;51.03;28.83;;;-0.40;99.90;;;;;;4991263;28;20042;-86
2022/11/21 08:27:02;;;;;;;45.03;26.08;;;-0.40;99.90;;;;;;4991574;28;20046;-86
2022/11/21 08:29:27;;;;;;;49.50;28.38;;;-0.40;99.90;;;;;;4994823;28;20088;-87
2022/11/21 08:31:53;;;;;;;45.92;28.25;;;-0.20;99.90;;;;;;4972820;28;20062;-85
2022/11/21 08:34:22;;;;;;;46.33;27.42;;;0.00;99.90;;;;;;4984931;28;20058;-85
2022/11/21 08:37:10;;;;;;;44.60;27.65;;;0.20;99.90;;;;;;4980317;28;20050;-87
2022/11/21 08:39:35;;;;;;;41.38;24.80;;;0.50;99.90;;;;;;5007651;23;20506;-26
2022/11/21 08:42:04;;;;;;;36.22;25.42;;;0.70;99.90;;;;;;5036425;28;20037;-26
2022/11/21 08:44:31;;;;;;;41.53;25.83;;;0.80;99.90;;;;;;5046715;28;20114;-27
2022/11/21 08:46:57;;;;;;;46.25;26.73;;;0.70;99.90;;;;;;5040044;28;20505;-27
2022/11/21 08:49:24;;;;;;;47.75;28.75;;;0.70;99.90;;;;;;5045616;28;20040;-26
2022/11/21 08:51:50;;;;;;;47.35;26.65;;;0.70;99.90;;;;;;5046772;28;20043;-28
2022/11/21 08:54:17;;;;;;;35.72;20.92;;;0.70;99.90;;;;;;5047114;28;20037;-26
2022/11/21 08:56:43;;;;;;;42.67;23.08;;;0.60;99.90;;;;;;5047946;28;20040;-28
2022/11/21 08:59:09;;;;;;;35.85;21.38;;;0.60;99.90;;;;;;5041536;28;20055;-26
2022/11/21 09:01:34;;;;;;;53.95;24.45;;;0.60;99.90;;;;;;5046731;28;20135;-26
2022/11/21 09:04:00;;;;;;;88.80;26.17;;;0.50;99.90;;;;;;5053738;28;20083;-27
2022/11/21 09:06:26;;;;;;;70.97;25.05;;;0.40;99.90;;;;;;5041906;28;20135;-26
2022/11/21 09:08:52;;;;;;;67.65;22.35;;;0.40;99.90;;;;;;5058986;28;20045;-29
2022/11/21 09:11:18;;;;;;;59.45;23.13;;;0.50;99.90;;;;;;5043101;28;20044;-28
2022/11/21 09:18:01;;;;;;;109.00;24.73;;;0.50;99.90;;;;;;5046095;28;20141;-26
2022/11/21 09:19:13;;;;;;;43.95;21.75;;;0.50;99.90;;;;;;5042905;28;20040;-26
2022/11/21 09:21:39;;;;;;;71.45;25.15;;;0.60;99.90;;;;;;5061971;28;20037;-27
2022/11/21 09:24:05;;;;;;;85.22;27.45;;;0.60;99.90;;;;;;5046304;28;20037;-28
2022/11/21 09:26:30;;;;;;;44.67;22.67;;;0.60;99.90;;;;;;5046049;28;20045;-26
2022/11/21 09:28:56;;;;;;;60.05;24.52;;;0.60;99.90;;;;;;5056317;28;20033;-27
2022/11/21 09:31:22;;;;;;;58.38;23.58;;;0.60;99.90;;;;;;5046044;28;20148;-26
2022/11/21 09:33:47;;;;;;;51.30;24.00;;;0.70;99.90;;;;;;5042429;28;20501;-28
2022/11/21 09:36:13;;;;;;;44.17;23.30;;;0.70;99.90;;;;;;5040110;28;20044;-26
2022/11/21 09:38:39;;;;;;;79.75;28.42;;;0.70;99.90;;;;;;5057656;28;20064;-26
2022/11/21 09:41:51;;;;;;;65.22;26.80;;;0.70;99.90;;;;;;5039784;28;20048;-25
2022/11/21 09:44:30;;;;;;;37.78;23.05;;;0.70;99.90;;;;;;5038250;28;20034;-26
2022/11/21 09:47:15;;;;;;;42.83;22.45;;;0.70;99.90;;;;;;5050375;28;20420;-27
2022/11/21 09:49:45;;;;;;;106.50;29.63;;;0.80;99.90;;;;;;5042620;28;20243;-28
2022/11/21 09:52:14;;;;;;;58.55;26.20;;;0.90;99.90;;;;;;5050099;28;20119;-27
2022/11/21 09:54:50;;;;;;;47.25;24.58;;;0.90;99.90;;;;;;5041826;28;20486;-27
2022/11/21 09:57:20;;;;;;;60.33;25.20;;;0.90;99.90;;;;;;5050426;28;20061;-29
2022/11/21 09:59:47;;;;;;;42.05;25.40;;;0.90;99.90;;;;;;5039540;28;20041;-28
2022/11/21 10:02:15;;;;;;;42.42;24.23;;;0.90;99.90;;;;;;5038564;28;20030;-27
2022/11/21 10:04:42;;;;;;;62.63;25.08;;;0.90;99.90;;;;;;5049991;28;20033;-27
2022/11/21 10:07:30;;;;;;;56.80;22.58;;;1.00;99.90;;;;;;5027945;28;20045;-28
2022/11/21 10:10:40;;;;;;;44.92;23.65;;;1.00;99.90;;;;;;5043735;28;20119;-27
2022/11/21 10:13:22;;;;;;;32.35;20.90;;;0.90;99.90;;;;;;4991051;28;20057;-27
2022/11/21 10:15:51;;;;;;;35.50;21.92;;;0.90;99.90;;;;;;5045952;28;20072;-26
2022/11/21 10:18:51;;;;;;;45.45;22.42;;;0.90;99.90;;;;;;5042695;28;20029;-29
2022/11/21 10:21:58;;;;;;;44.55;24.30;;;1.00;99.90;;;;;;5042721;28;20043;-27
2022/11/21 10:24:56;;;;;;;36.03;21.23;;;1.10;99.90;;;;;;5046642;28;20072;-27
2022/11/21 10:27:40;;;;;;;40.67;23.48;;;1.20;99.90;;;;;;5030206;28;20044;-28
2022/11/21 10:30:14;;;;;;;40.30;23.17;;;1.40;99.90;;;;;;5048894;28;20037;-28
2022/11/21 10:32:45;;;;;;;43.13;24.60;;;1.40;99.90;;;;;;5041990;28;20116;-27
2022/11/21 10:35:19;;;;;;;43.25;23.67;;;1.50;99.90;;;;;;5043397;28;20033;-29
2022/11/21 10:37:54;;;;;;;39.83;24.55;;;1.50;99.90;;;;;;5044989;28;20159;-29
2022/11/21 10:40:40;;;;;;;39.85;23.63;;;1.60;99.90;;;;;;5044143;28;20032;-28
2022/11/21 10:46:08;;;;;;;49.97;26.30;;;1.80;99.90;;;;;;5047794;28;20099;-27
2022/11/21 10:48:34;;;;;;;45.50;25.75;;;1.80;99.90;;;;;;5049474;28;20552;-28
2022/11/21 10:51:12;;;;;;;42.60;25.52;;;1.90;99.90;;;;;;5047277;28;20037;-27
2022/11/21 10:56:25;;;;;;;42.83;26.13;;;2.10;99.90;;;;;;5047238;28;20451;-29
2022/11/21 10:58:59;;;;;;;42.30;26.75;;;2.20;99.90;;;;;;5050399;28;20025;-27
2022/11/21 11:01:34;;;;;;;42.05;26.30;;;2.40;99.90;;;;;;5022254;28;20584;-28
2022/11/21 11:04:16;;;;;;;38.13;24.58;;;2.50;99.90;;;;;;5039201;28;20044;-30
2022/11/21 11:06:45;;;;;;;37.38;23.90;;;2.80;99.90;;;;;;5047387;28;20033;-28
2022/11/21 11:09:28;;;;;;;40.20;26.83;;;2.90;99.90;;;;;;5045527;28;20044;-29
2022/11/21 11:12:23;;;;;;;38.33;26.13;;;3.00;99.90;;;;;;5050063;28;20037;-27
2022/11/21 11:14:54;;;;;;;39.40;25.13;;;3.20;99.90;;;;;;5046737;28;20033;-27
2022/11/21 11:17:29;;;;;;;37.58;26.45;;;3.30;99.90;;;;;;5053799;28;20115;-28
2022/11/21 11:20:05;;;;;;;35.45;23.33;;;4.00;99.90;;;;;;5054303;28;20044;-29
2022/11/21 11:22:31;;;;;;;34.38;22.95;;;4.40;99.90;;;;;;5044315;28;20045;-29
2022/11/21 11:24:57;;;;;;;37.17;23.48;;;4.50;99.90;;;;;;5065242;28;20524;-28
2022/11/21 11:27:27;;;;;;;35.28;22.88;;;4.50;99.90;;;;;;5058123;28;20039;-28
2022/11/21 11:29:53;;;;;;;36.78;23.88;;;4.60;99.90;;;;;;5055170;28;20037;-28
2022/11/21 11:32:20;;;;;;;33.55;22.60;;;4.40;99.90;;;;;;5037749;28;20052;-29
2022/11/21 11:34:49;;;;;;;36.50;23.27;;;4.30;99.90;;;;;;5054654;28;20036;-29
2022/11/21 11:37:39;;;;;;;38.50;25.85;;;4.30;99.90;;;;;;5037701;28;20095;-28
2022/11/21 11:40:31;;;;;;;38.33;25.42;;;4.30;99.90;;;;;;5039020;28;20065;-28
2022/11/21 11:52:34;;;;;;;44.20;27.13;;;3.60;99.90;;;;;;5049037;28;20088;-28
2022/11/21 11:55:08;;;;;;;37.88;23.65;;;3.50;99.90;;;;;;5044877;28;20080;-29
2022/11/21 11:57:35;;;;;;;36.30;24.65;;;3.40;99.90;;;;;;5039160;28;20041;-27
2022/11/21 12:00:19;;;;;;;33.22;22.30;;;3.50;99.90;;;;;;5025719;28;20040;-28
2022/11/21 12:03:02;;;;;;;30.83;20.88;;;3.40;99.90;;;;;;5041774;28;20601;-29
2022/11/21 12:05:31;;;;;;;36.35;23.30;;;3.40;99.90;;;;;;5044429;28;20037;-28
2022/11/21 12:08:20;;;;;;;36.45;23.55;;;3.40;99.90;;;;;;5050966;28;20041;-28
2022/11/21 12:13:42;;;;;;;32.47;22.40;;;3.50;99.90;;;;;;5043946;28;20100;-30
2022/11/21 12:16:12;;;;;;;34.20;21.90;;;3.50;99.90;;;;;;5042658;28;20128;-28
2022/11/21 12:18:51;;;;;;;41.03;24.73;;;3.60;99.90;;;;;;5047159;28;20032;-28
2022/11/21 12:21:17;;;;;;;44.13;28.05;;;3.90;99.90;;;;;;5048101;28;20044;-28
2022/11/21 12:23:52;;;;;;;34.97;23.30;;;4.90;99.90;;;;;;5048860;28;20048;-28
2022/11/21 12:26:42;;;;;;;32.08;22.17;;;5.90;99.90;;;;;;5056256;28;20033;-29
2022/11/21 12:29:15;;;;;;;28.88;20.77;;;5.80;99.90;;;;;;5046179;28;20048;-28
2022/11/21 12:31:44;;;;;;;30.77;21.08;;;5.70;99.90;;;;;;5044090;28;20107;-28
2022/11/21 12:34:16;;;;;;;29.92;20.83;;;5.60;99.90;;;;;;5049264;28;20037;-28
2022/11/21 12:37:10;;;;;;;29.17;20.65;;;5.70;99.90;;;;;;5044989;28;20037;-29
2022/11/21 12:40:13;;;;;;;27.77;18.77;;;6.00;99.90;;;;;;5048747;28;20041;-28
2022/11/21 12:43:12;;;;;;;25.80;19.33;;;5.90;99.90;;;;;;5046987;28;20041;-28
2022/11/21 12:45:49;;;;;;;28.63;19.95;;;5.70;99.90;;;;;;5047732;28;20541;-34
2022/11/21 12:54:32;;;;;;;28.67;19.48;;;4.90;99.90;;;;;;5044693;28;20060;-29
2022/11/21 12:57:03;;;;;;;28.73;19.45;;;4.80;99.90;;;;;;5048596;28;20108;-28
2022/11/21 12:59:45;;;;;;;26.42;19.25;;;4.70;99.90;;;;;;5040609;28;20040;-27
2022/11/21 13:02:33;;;;;;;27.52;18.50;;;4.70;99.90;;;;;;5038107;28;20487;-28
2022/11/21 13:05:01;;;;;;;28.33;18.52;;;4.70;99.90;;;;;;5048699;28;20040;-28
2022/11/21 13:07:29;;;;;;;26.75;19.35;;;4.70;99.90;;;;;;5041133;28;20117;-29
2022/11/21 13:09:58;;;;;;;28.25;19.63;;;4.70;99.90;;;;;;5039867;28;20036;-27
2022/11/21 13:12:42;;;;;;;26.13;18.08;;;4.60;99.90;;;;;;5042747;28;20037;-30
2022/11/21 13:15:26;;;;;;;25.48;17.70;;;4.60;99.90;;;;;;5041148;28;20044;-28
2022/11/21 13:17:57;;;;;;;;;;;4.60;99.90;;;;;;5046726;28;20045;-28